Aérodrome :
LOGIN :

S'inscrire | Disclaimer

   EN    FR    IT 

 










Légende :    VFR   VFR Marginal   IFR   IFR Intensif   IFR Très Intensif
Visi : 
Plafond : 
>= 8 km
>= 3000ft
5 à 8 km
1000 à 3000 ft
1500m à 5 km
500 à 1000 ft
800 à 1500m
200 à 500 ft
< 800m
< 200 ft
Symboles :   Orages  Brouillard  Fortes neiges  Fortes précipitations  Vent > 20 kt
SIGMETs :   Divers  Orages  Givrage  Turbulence  Onde Orograph.  Cendres Volcan.






- Altitude de l'aérodrome : 461 ft
- Code IATA : WIE


ETOU - Wiesbaden Army

DERNIER METAR :
  • 010156Z AUTO 04003KT 9999 CLR 01/M09 A3027 RMK AO2 SLP259 T00081087 $

METARs EXPIRÉS :
  • 010056Z AUTO 05005KT 9999 CLR 02/M09 A3028 RMK AO2 SLP262 T00161088 $
  • 312356Z AUTO 04003KT 9999 CLR 02/M09 A3028 RMK AO2 SLP262 T00181086 10061 20014 $

TAF AMD TAF ETOU
Valide du 31 à 20h jusqu'au 01 à 18h UTC


312000Z 3120/0118 05009KT 9999 FEW040 QNH3035INS TX05/0112Z TN00/0103Z LAST NO AMDS AFT 3120 NEXT 0103



MET'MAP, la Météo Aéronautique d'un coup d'oeil ! - Copyright ORBIFLY Décembre 2007 - Disclaimer

ORBIFLY MET'MAP TEAM :

Programmation & Développement : Alexandra Zaïnal
Sur une idée originale de : Baudouin d'Aumeries
Assistance à la programmation : Marc-Olivier Méhu
Soutien technique & logistique : Manuel Goepfert

Contact : metmap@orbifly.com




SOURCES & CREDITS :

   NOAA